Time;durP1;ratioP1;P1;durP2;ratioP2;P2;SDS_P1;SDS_P2;PMS_P1;PMS_P2;Temp;Humidity;BMP_temperature;BMP_pressure;BME280_temperature;BME280_humidity;BME280_pressure;Samples;Min_cycle;Max_cycle;Signal;HPM_P1;HPM_P2
2022/08/10 00:02:16;;;;;;;4.15;0.77;;;24.00;80.10;;;;;;4975547;28;20138;-67
2022/08/10 00:04:41;;;;;;;0.98;0.50;;;24.00;80.20;;;;;;4975412;28;20535;-67
2022/08/10 00:07:07;;;;;;;2.00;0.63;;;23.80;80.50;;;;;;4975295;28;20045;-67
2022/08/10 00:09:33;;;;;;;1.52;0.70;;;23.80;80.20;;;;;;4975279;28;20061;-68
2022/08/10 00:11:59;;;;;;;1.98;0.80;;;23.90;80.00;;;;;;4975636;28;20062;-67
2022/08/10 00:14:24;;;;;;;1.55;0.65;;;23.80;80.20;;;;;;4975461;28;20050;-68
2022/08/10 00:16:50;;;;;;;0.88;0.63;;;23.90;80.00;;;;;;4975459;28;20476;-67
2022/08/10 00:19:16;;;;;;;2.08;0.80;;;24.00;79.60;;;;;;4975094;28;20528;-68
2022/08/10 00:21:41;;;;;;;1.30;0.65;;;24.10;79.10;;;;;;4975230;28;20039;-67
2022/08/10 00:24:07;;;;;;;6.90;0.50;;;23.90;79.60;;;;;;4975062;28;20051;-67
2022/08/10 00:26:32;;;;;;;2.92;0.80;;;23.80;79.80;;;;;;4975112;28;20483;-67
2022/08/10 00:28:58;;;;;;;2.70;0.73;;;23.80;79.80;;;;;;4974767;28;20472;-67
2022/08/10 00:31:24;;;;;;;2.85;0.80;;;24.00;78.90;;;;;;4975164;28;20435;-67
2022/08/10 00:33:49;;;;;;;2.22;0.80;;;24.00;78.50;;;;;;4974985;28;20022;-67
2022/08/10 00:36:15;;;;;;;1.52;1.08;;;24.00;78.60;;;;;;4974828;28;20034;-67
2022/08/10 00:38:41;;;;;;;2.25;1.00;;;24.00;78.20;;;;;;4974732;28;20065;-67
2022/08/10 00:41:06;;;;;;;1.90;0.73;;;24.00;78.30;;;;;;4975213;28;20061;-68
2022/08/10 00:43:32;;;;;;;1.05;0.70;;;23.90;78.40;;;;;;4974801;28;20464;-68
2022/08/10 00:45:58;;;;;;;4.30;0.95;;;23.80;78.70;;;;;;4974951;28;20028;-68
2022/08/10 00:48:24;;;;;;;1.80;0.65;;;23.80;78.90;;;;;;4974735;28;20387;-68
2022/08/10 00:50:49;;;;;;;2.00;0.60;;;23.70;79.20;;;;;;4974722;28;20042;-68
2022/08/10 00:53:15;;;;;;;1.73;0.82;;;23.60;79.30;;;;;;4974359;28;20034;-68
2022/08/10 00:55:41;;;;;;;1.20;0.60;;;23.60;79.30;;;;;;4974719;28;20030;-68
2022/08/10 00:58:07;;;;;;;2.35;0.90;;;23.50;79.50;;;;;;4974797;28;20027;-68
2022/08/10 01:00:33;;;;;;;1.27;0.75;;;23.60;79.20;;;;;;4974354;28;20050;-69
2022/08/10 01:02:58;;;;;;;0.98;0.70;;;23.60;79.10;;;;;;4974696;28;20059;-69
2022/08/10 01:05:24;;;;;;;1.38;0.60;;;23.70;78.60;;;;;;4974335;28;20038;-68
2022/08/10 01:08:22;;;;;;;2.30;1.00;;;23.60;78.90;;;;;;4974404;28;20147;-68
2022/08/10 01:11:04;;;;;;;1.42;0.80;;;23.50;79.20;;;;;;4953919;28;20042;-68
2022/08/10 01:13:43;;;;;;;;;;;23.50;79.00;;;;;;4974802;28;20022;-68
2022/08/10 01:16:33;;;;;;;1.42;0.57;;;23.60;78.90;;;;;;4974477;28;19910;-69
2022/08/10 01:19:20;;;;;;;3.85;0.95;;;23.40;79.20;;;;;;4974620;28;20034;-68
2022/08/10 01:22:27;;;;;;;0.75;0.60;;;23.70;78.50;;;;;;4974086;28;20496;-67
2022/08/10 01:24:59;;;;;;;2.38;0.80;;;23.50;79.10;;;;;;4974310;28;20030;-67
2022/08/10 01:27:54;;;;;;;2.28;1.08;;;23.40;79.20;;;;;;4974715;28;20135;-68
2022/08/10 01:30:22;;;;;;;2.13;0.95;;;23.30;79.50;;;;;;4974171;28;20114;-67
2022/08/10 01:33:00;;;;;;;1.73;0.93;;;23.40;79.10;;;;;;4974355;28;20027;-67
2022/08/10 01:35:34;;;;;;;2.83;1.10;;;23.50;79.00;;;;;;4973705;28;20026;-67
2022/08/10 01:38:05;;;;;;;2.63;0.70;;;23.40;79.00;;;;;;4974353;28;20130;-68
2022/08/10 01:40:38;;;;;;;3.77;1.10;;;23.30;79.20;;;;;;4974111;28;20030;-68
2022/08/10 01:43:08;;;;;;;1.83;1.20;;;23.40;79.20;;;;;;4978154;28;20034;-67
2022/08/10 01:45:38;;;;;;;2.72;0.95;;;23.30;79.40;;;;;;4978191;28;20027;-67
2022/08/10 01:50:54;;;;;;;3.42;1.25;;;23.40;78.90;;;;;;4977929;28;20224;-67
2022/08/10 01:53:23;;;;;;;2.10;0.98;;;23.20;79.20;;;;;;4978113;28;20118;-67
2022/08/10 01:55:52;;;;;;;1.65;1.20;;;23.10;79.70;;;;;;4977962;28;20027;-67
2022/08/10 01:58:19;;;;;;;1.67;1.00;;;23.10;79.80;;;;;;4978030;28;20019;-67
2022/08/10 02:00:49;;;;;;;1.77;0.85;;;23.30;78.70;;;;;;4978070;28;20079;-67
2022/08/10 02:03:15;;;;;;;5.40;1.33;;;23.20;79.20;;;;;;4977893;28;20034;-68
2022/08/10 02:05:43;;;;;;;3.67;1.25;;;23.30;78.90;;;;;;4975885;28;20031;-67
2022/08/10 02:08:15;;;;;;;3.70;1.13;;;23.20;79.10;;;;;;4977575;28;20037;-68
2022/08/10 02:10:44;;;;;;;1.23;0.90;;;23.20;79.10;;;;;;4977725;28;20019;-68
2022/08/10 02:13:11;;;;;;;4.47;1.30;;;23.20;79.10;;;;;;4975000;28;20483;-67
2022/08/10 02:15:39;;;;;;;2.75;1.33;;;23.30;78.70;;;;;;4966176;28;20385;-67
2022/08/10 02:18:07;;;;;;;1.42;1.05;;;23.20;78.80;;;;;;4957586;29;20035;-68
2022/08/10 02:20:45;;;;;;;3.05;1.30;;;23.30;78.70;;;;;;4957092;29;20090;-68
2022/08/10 02:23:18;;;;;;;3.15;1.05;;;23.20;78.90;;;;;;4958239;29;20462;-68
2022/08/10 02:25:44;;;;;;;2.38;0.98;;;23.00;79.40;;;;;;4957937;29;20031;-67
2022/08/10 02:28:15;;;;;;;2.72;1.30;;;23.20;79.00;;;;;;4958171;29;20033;-67
2022/08/10 02:30:41;;;;;;;1.35;1.10;;;23.00;79.60;;;;;;4957782;29;20031;-68
2022/08/10 02:33:08;;;;;;;2.42;1.00;;;22.90;79.80;;;;;;4957898;29;20480;-68
2022/08/10 02:35:35;;;;;;;1.88;1.10;;;22.80;80.00;;;;;;4957639;29;20031;-68
2022/08/10 02:38:04;;;;;;;1.48;1.13;;;22.90;80.00;;;;;;4957946;29;20046;-68
2022/08/10 02:40:34;;;;;;;2.78;0.90;;;22.70;80.30;;;;;;4957628;29;20027;-67
2022/08/10 02:43:20;;;;;;;0.98;0.93;;;22.60;80.80;;;;;;4957950;29;20134;-69
2022/08/10 02:45:51;;;;;;;2.22;1.00;;;22.70;80.50;;;;;;4957169;29;20069;-70
2022/08/10 02:48:41;;;;;;;2.08;1.25;;;22.80;79.90;;;;;;4957751;29;20051;-69
2022/08/10 02:51:21;;;;;;;3.05;1.58;;;22.80;80.30;;;;;;4957702;28;20031;-68
2022/08/10 02:53:56;;;;;;;1.30;1.20;;;22.90;79.60;;;;;;4957138;28;20046;-70
2022/08/10 02:56:50;;;;;;;1.52;1.30;;;22.80;80.00;;;;;;4957523;29;20079;-69
2022/08/10 02:59:30;;;;;;;2.00;1.52;;;22.80;80.30;;;;;;4954144;29;20491;-70
2022/08/10 03:02:01;;;;;;;1.70;1.05;;;22.60;80.70;;;;;;4956929;29;20041;-69
2022/08/10 03:04:37;;;;;;;2.47;1.33;;;22.80;80.60;;;;;;4957214;29;20468;-69
2022/08/10 03:07:07;;;;;;;2.95;1.50;;;22.80;80.00;;;;;;4957672;29;20035;-69
2022/08/10 03:09:35;;;;;;;2.67;1.52;;;22.90;79.50;;;;;;4957148;29;20552;-69
2022/08/10 03:12:04;;;;;;;3.83;1.60;;;22.90;79.70;;;;;;4957208;29;20031;-69
2022/08/10 03:14:30;;;;;;;2.88;1.30;;;22.80;79.70;;;;;;4957012;29;20066;-69
2022/08/10 03:16:57;;;;;;;3.20;1.40;;;22.80;79.70;;;;;;4956810;29;20027;-69
2022/08/10 03:19:26;;;;;;;2.53;1.40;;;22.80;79.70;;;;;;4957322;28;20158;-69
2022/08/10 03:21:53;;;;;;;1.70;1.52;;;22.80;79.90;;;;;;4957020;29;20126;-69
2022/08/10 03:24:21;;;;;;;2.03;1.42;;;22.50;80.90;;;;;;4957265;29;20023;-68
2022/08/10 03:26:48;;;;;;;2.42;1.85;;;22.50;80.70;;;;;;4955527;29;20030;-67
2022/08/10 03:29:15;;;;;;;2.80;1.90;;;22.60;80.80;;;;;;4956919;29;20026;-67
2022/08/10 03:31:41;;;;;;;2.28;1.67;;;22.60;80.80;;;;;;4956806;29;20031;-67
2022/08/10 03:34:07;;;;;;;2.92;1.40;;;22.70;80.10;;;;;;4955880;29;20476;-67
2022/08/10 03:36:32;;;;;;;4.13;1.60;;;22.60;80.20;;;;;;4956645;29;20043;-67
2022/08/10 03:38:58;;;;;;;3.28;1.65;;;22.50;80.80;;;;;;4956618;29;20028;-68
2022/08/10 03:41:39;;;;;;;1.88;1.52;;;22.40;81.00;;;;;;4956559;29;20114;-67
2022/08/10 03:44:07;;;;;;;2.17;1.83;;;22.40;81.20;;;;;;4956939;29;20031;-68
2022/08/10 03:46:36;;;;;;;3.28;1.67;;;22.40;81.50;;;;;;4956469;28;20046;-68
2022/08/10 03:49:04;;;;;;;4.82;1.58;;;22.20;81.90;;;;;;4956773;28;20471;-67
2022/08/10 03:51:31;;;;;;;3.80;2.10;;;22.20;82.10;;;;;;4956526;28;20052;-67
2022/08/10 03:53:57;;;;;;;3.28;1.90;;;22.30;81.90;;;;;;4956368;29;20031;-68
2022/08/10 03:56:24;;;;;;;3.78;1.98;;;22.20;82.00;;;;;;4956461;29;20073;-67
2022/08/10 03:58:50;;;;;;;4.88;2.17;;;22.20;82.10;;;;;;4956314;29;20026;-67
2022/08/10 04:01:16;;;;;;;2.67;1.80;;;22.20;82.10;;;;;;4954889;29;20337;-68
2022/08/10 04:03:41;;;;;;;2.78;1.83;;;22.20;82.20;;;;;;4955408;28;20093;-67
2022/08/10 04:06:09;;;;;;;3.53;2.63;;;22.10;82.20;;;;;;4956494;29;20539;-67
2022/08/10 04:08:34;;;;;;;2.92;2.03;;;22.20;82.10;;;;;;4956166;29;20031;-67
2022/08/10 04:11:00;;;;;;;2.33;1.77;;;22.10;82.50;;;;;;4956132;29;20114;-69
2022/08/10 04:13:25;;;;;;;5.53;2.47;;;22.00;83.00;;;;;;4955983;29;20416;-67
2022/08/10 04:15:51;;;;;;;5.90;2.30;;;21.90;83.20;;;;;;4955784;29;20102;-67
2022/08/10 04:18:16;;;;;;;4.38;2.15;;;22.00;83.00;;;;;;4956029;29;20028;-67
2022/08/10 04:20:51;;;;;;;4.88;2.13;;;22.00;82.70;;;;;;4955933;29;20031;-67
2022/08/10 04:23:29;;;;;;;4.15;2.40;;;22.20;82.10;;;;;;4955981;29;20489;-67
2022/08/10 04:25:55;;;;;;;4.20;2.78;;;22.20;81.90;;;;;;4955718;29;20027;-67
2022/08/10 04:28:21;;;;;;;2.97;2.30;;;22.30;81.70;;;;;;4954626;29;20106;-67
2022/08/10 04:30:50;;;;;;;3.03;2.25;;;22.20;81.90;;;;;;4955619;29;20019;-67
2022/08/10 04:33:19;;;;;;;3.05;2.42;;;22.10;82.30;;;;;;4955739;29;20107;-67
2022/08/10 04:35:46;;;;;;;7.35;2.45;;;22.00;82.40;;;;;;4955330;29;20031;-67
2022/08/10 04:38:13;;;;;;;3.13;2.45;;;22.00;82.80;;;;;;4955548;29;20035;-67
2022/08/10 04:40:39;;;;;;;2.42;2.22;;;22.00;82.70;;;;;;4955731;29;20061;-67
2022/08/10 04:43:05;;;;;;;3.15;2.60;;;21.90;83.10;;;;;;4955613;29;20046;-67
2022/08/10 04:45:32;;;;;;;3.85;2.13;;;22.00;82.90;;;;;;4955303;29;20050;-67
2022/08/10 04:47:58;;;;;;;2.97;2.15;;;22.00;82.70;;;;;;4955507;29;20469;-67
2022/08/10 04:50:24;;;;;;;2.80;2.50;;;22.00;82.40;;;;;;4955451;29;20047;-67
2022/08/10 04:52:49;;;;;;;4.57;2.03;;;22.00;82.40;;;;;;4955554;29;20154;-68
2022/08/10 04:55:15;;;;;;;4.38;2.50;;;22.00;83.10;;;;;;4955445;29;20016;-67
2022/08/10 04:57:40;;;;;;;2.83;2.22;;;21.90;83.00;;;;;;4955663;29;20031;-69
2022/08/10 05:00:07;;;;;;;2.40;2.10;;;21.90;83.40;;;;;;4954877;29;20026;-69
2022/08/10 05:02:32;;;;;;;7.35;2.97;;;21.70;83.90;;;;;;4967450;28;20121;-69
2022/08/10 05:04:58;;;;;;;5.43;3.10;;;21.70;84.20;;;;;;4973846;28;20055;-69
2022/08/10 05:07:24;;;;;;;3.35;2.40;;;21.60;84.10;;;;;;4973162;28;20035;-68
2022/08/10 05:09:50;;;;;;;4.35;2.72;;;21.70;83.80;;;;;;4974466;28;20061;-69
2022/08/10 05:12:15;;;;;;;3.10;2.35;;;21.90;83.20;;;;;;4974672;28;20030;-69
2022/08/10 05:14:41;;;;;;;4.47;2.28;;;21.80;83.40;;;;;;4973981;28;20082;-69
2022/08/10 05:17:06;;;;;;;3.70;2.58;;;21.90;83.10;;;;;;4974694;28;20459;-69
2022/08/10 05:19:32;;;;;;;4.65;2.47;;;22.00;82.80;;;;;;4974461;28;20118;-69
2022/08/10 05:21:58;;;;;;;3.88;2.88;;;22.10;82.30;;;;;;4974328;28;20035;-69
2022/08/10 05:24:23;;;;;;;3.33;3.03;;;22.10;82.50;;;;;;4974468;28;20023;-69
2022/08/10 05:26:49;;;;;;;3.38;2.80;;;22.10;82.20;;;;;;4974114;28;20038;-68
2022/08/10 05:29:14;;;;;;;4.43;3.00;;;22.10;82.10;;;;;;4974334;28;20371;-67
2022/08/10 05:31:40;;;;;;;3.25;2.67;;;22.20;81.80;;;;;;4974293;28;20476;-67
2022/08/10 05:34:06;;;;;;;3.72;2.83;;;22.00;82.40;;;;;;4974291;28;20494;-68
2022/08/10 05:36:32;;;;;;;4.03;2.92;;;22.00;82.80;;;;;;4973823;28;20113;-68
2022/08/10 05:38:59;;;;;;;5.70;3.53;;;22.10;82.40;;;;;;4974400;28;20024;-67
2022/08/10 05:41:27;;;;;;;6.88;3.50;;;22.10;82.10;;;;;;4973974;28;20391;-67
2022/08/10 05:43:53;;;;;;;4.85;3.22;;;22.10;82.50;;;;;;4974238;28;20019;-67
2022/08/10 05:46:19;;;;;;;4.07;3.00;;;22.00;82.70;;;;;;4974106;28;20026;-67
2022/08/10 05:48:44;;;;;;;4.50;3.03;;;22.00;83.10;;;;;;4974061;28;20109;-67
2022/08/10 05:51:10;;;;;;;3.85;3.30;;;22.00;83.40;;;;;;4972784;28;20053;-67
2022/08/10 05:53:37;;;;;;;4.57;3.35;;;21.90;83.40;;;;;;4972927;28;20081;-67
2022/08/10 05:56:05;;;;;;;8.85;3.35;;;21.90;83.40;;;;;;4973652;28;20380;-67
2022/08/10 05:58:31;;;;;;;4.22;3.13;;;22.00;83.10;;;;;;4974267;28;20073;-67
2022/08/10 06:01:00;;;;;;;6.75;3.50;;;22.00;83.30;;;;;;4973749;28;20039;-67
2022/08/10 06:03:32;;;;;;;7.28;3.50;;;21.90;83.90;;;;;;4974047;28;20050;-67
2022/08/10 06:05:59;;;;;;;5.35;3.42;;;21.80;84.30;;;;;;4974008;28;20110;-68
2022/08/10 06:08:30;;;;;;;5.07;3.63;;;21.90;83.90;;;;;;4973938;28;20086;-67
2022/08/10 06:10:58;;;;;;;5.45;3.65;;;21.90;83.60;;;;;;4972441;28;20066;-67
2022/08/10 06:16:11;;;;;;;3.88;3.53;;;21.90;84.10;;;;;;4974238;28;20045;-67
2022/08/10 06:18:36;;;;;;;3.30;3.00;;;22.00;83.40;;;;;;4973769;28;20019;-67
2022/08/10 06:21:03;;;;;;;6.35;3.10;;;22.30;82.70;;;;;;4973789;28;20483;-67
2022/08/10 06:23:30;;;;;;;3.35;3.00;;;22.40;82.10;;;;;;4973873;28;20073;-67
2022/08/10 06:25:56;;;;;;;6.63;3.50;;;22.40;81.80;;;;;;4973337;28;20023;-67
2022/08/10 06:28:23;;;;;;;4.47;3.42;;;22.50;81.50;;;;;;4976266;28;20101;-67
2022/08/10 06:30:52;;;;;;;5.25;3.42;;;22.50;81.30;;;;;;4977301;28;20051;-67
2022/08/10 06:33:20;;;;;;;5.88;3.88;;;22.40;81.90;;;;;;4977617;28;20134;-67
2022/08/10 06:35:49;;;;;;;6.85;3.40;;;22.40;81.70;;;;;;4976798;28;20023;-67
2022/08/10 06:38:16;;;;;;;6.43;3.78;;;22.50;81.50;;;;;;4977182;28;20494;-68
2022/08/10 06:40:45;;;;;;;5.25;4.38;;;22.60;81.30;;;;;;4976786;28;20033;-67
2022/08/10 06:43:15;;;;;;;5.13;3.47;;;22.70;80.50;;;;;;4977188;28;20483;-67
2022/08/10 06:45:46;;;;;;;7.30;3.88;;;22.80;80.10;;;;;;4977085;28;20102;-67
2022/08/10 06:48:34;;;;;;;4.45;4.05;;;22.90;80.10;;;;;;4977127;28;20015;-67
2022/08/10 06:51:03;;;;;;;4.07;3.67;;;22.90;79.30;;;;;;4976839;28;20018;-68
2022/08/10 06:53:38;;;;;;;7.32;4.68;;;23.00;79.50;;;;;;4976839;28;20027;-68
2022/08/10 06:56:11;;;;;;;6.65;3.85;;;23.00;79.50;;;;;;4976470;28;20464;-69
2022/08/10 06:58:42;;;;;;;6.32;4.22;;;23.10;79.20;;;;;;4976874;28;20040;-69
2022/08/10 07:01:14;;;;;;;8.97;3.77;;;23.10;79.20;;;;;;4976625;28;20073;-68
2022/08/10 07:03:46;;;;;;;3.97;3.58;;;23.10;79.00;;;;;;4976931;28;20281;-69
2022/08/10 07:06:14;;;;;;;4.03;3.72;;;23.20;79.10;;;;;;4976704;28;20050;-69
2022/08/10 07:08:41;;;;;;;4.85;3.55;;;23.20;78.70;;;;;;4976500;28;20138;-69
2022/08/10 07:11:08;;;;;;;6.05;3.78;;;23.20;78.80;;;;;;4976616;28;20403;-68
2022/08/10 07:13:36;;;;;;;6.03;3.47;;;23.30;78.90;;;;;;4976635;28;20364;-68
2022/08/10 07:16:06;;;;;;;6.70;4.65;;;23.30;78.70;;;;;;4976537;28;20038;-68
2022/08/10 07:18:32;;;;;;;8.48;4.13;;;23.30;78.50;;;;;;4976312;28;20019;-67
2022/08/10 07:21:00;;;;;;;6.18;4.70;;;23.40;78.30;;;;;;4976460;28;20030;-68
2022/08/10 07:23:28;;;;;;;7.47;4.13;;;23.40;78.40;;;;;;4976172;28;20046;-68
2022/08/10 07:25:56;;;;;;;6.10;4.45;;;23.50;78.10;;;;;;4976484;28;20113;-68
2022/08/10 07:28:23;;;;;;;8.80;4.35;;;23.60;78.20;;;;;;4976282;28;20054;-69
2022/08/10 07:30:51;;;;;;;5.00;4.07;;;23.60;78.10;;;;;;4976389;28;20030;-68
2022/08/10 07:33:19;;;;;;;7.97;4.20;;;23.60;78.20;;;;;;4976550;28;20383;-67
2022/08/10 07:35:47;;;;;;;9.13;4.30;;;23.70;78.10;;;;;;4976256;28;20027;-67
2022/08/10 07:38:32;;;;;;;5.30;4.25;;;23.80;78.00;;;;;;4975394;28;20081;-67
2022/08/10 07:41:00;;;;;;;6.07;3.95;;;23.80;77.60;;;;;;4975837;28;20030;-68
2022/08/10 07:43:29;;;;;;;8.52;4.25;;;23.80;77.90;;;;;;4975778;28;20031;-67
2022/08/10 07:45:57;;;;;;;8.00;4.07;;;23.90;77.80;;;;;;4976045;28;20460;-67
2022/08/10 07:48:29;;;;;;;8.88;4.88;;;24.00;77.40;;;;;;4976071;28;20081;-67
2022/08/10 07:50:58;;;;;;;;;;;24.10;77.40;;;;;;4975158;28;20026;-67
2022/08/10 07:53:26;;;;;;;9.05;4.32;;;24.10;76.70;;;;;;4975322;28;20422;-67
2022/08/10 07:55:54;;;;;;;5.40;3.72;;;24.20;77.00;;;;;;4975749;28;20031;-68
2022/08/10 07:58:27;;;;;;;6.15;3.58;;;24.20;76.80;;;;;;4975677;28;20029;-67
2022/08/10 08:00:53;;;;;;;12.15;4.65;;;24.20;76.90;;;;;;4975760;28;20030;-67
2022/08/10 08:03:23;;;;;;;7.38;4.10;;;24.30;76.70;;;;;;4975547;28;20070;-67
2022/08/10 08:05:50;;;;;;;5.85;3.40;;;24.40;76.50;;;;;;4975433;28;20023;-67
2022/08/10 08:08:16;;;;;;;7.15;3.67;;;24.40;76.80;;;;;;4975220;28;20134;-67
2022/08/10 08:10:44;;;;;;;6.20;4.00;;;24.40;76.50;;;;;;4976164;28;20031;-67
2022/08/10 08:13:11;;;;;;;6.05;3.10;;;24.50;76.50;;;;;;4975503;28;20025;-67
2022/08/10 08:15:37;;;;;;;4.43;3.38;;;24.50;76.60;;;;;;4975428;28;20023;-67
2022/08/10 08:18:04;;;;;;;3.47;2.90;;;24.60;76.00;;;;;;4975512;28;20387;-67
2022/08/10 08:20:31;;;;;;;7.53;3.30;;;24.60;75.70;;;;;;4975480;28;20100;-68
2022/08/10 08:22:57;;;;;;;4.18;2.80;;;24.70;76.00;;;;;;4974848;28;20070;-67
2022/08/10 08:25:24;;;;;;;5.47;3.17;;;24.70;76.00;;;;;;4975106;28;20057;-67
2022/08/10 08:27:54;;;;;;;6.10;2.88;;;24.70;75.10;;;;;;4975361;28;20030;-67
2022/08/10 08:30:22;;;;;;;7.40;3.00;;;24.80;74.90;;;;;;4975188;28;20026;-68
2022/08/10 08:32:48;;;;;;;5.93;3.33;;;24.80;75.00;;;;;;4975399;28;20050;-67
2022/08/10 08:35:17;;;;;;;5.70;3.13;;;24.80;75.20;;;;;;4974869;28;20073;-67
2022/08/10 08:37:48;;;;;;;5.15;3.25;;;24.90;75.20;;;;;;4974730;28;20065;-67
2022/08/10 08:40:19;;;;;;;3.97;2.88;;;24.90;75.10;;;;;;4973570;28;20022;-67
2022/08/10 08:43:00;;;;;;;7.75;3.72;;;24.90;75.20;;;;;;4975292;28;20031;-66
2022/08/10 08:45:39;;;;;;;6.93;3.15;;;24.90;74.70;;;;;;4974894;28;20022;-67
2022/08/10 08:48:13;;;;;;;7.85;3.10;;;25.00;74.40;;;;;;4974795;28;20027;-67
2022/08/10 08:51:08;;;;;;;5.30;2.70;;;25.00;74.70;;;;;;4974463;28;20027;-67
2022/08/10 08:53:50;;;;;;;5.32;2.55;;;25.00;74.50;;;;;;4974569;28;20384;-67
2022/08/10 08:56:42;;;;;;;4.05;2.47;;;25.00;74.00;;;;;;4974840;28;20034;-68
2022/08/10 08:59:17;;;;;;;4.90;2.85;;;25.10;73.50;;;;;;4959729;28;20018;-67
2022/08/10 09:01:58;;;;;;;3.13;2.63;;;25.10;73.60;;;;;;4974555;28;20043;-67
2022/08/10 09:04:58;;;;;;;6.38;3.30;;;25.10;73.80;;;;;;4974346;28;20114;-67
2022/08/10 09:07:26;;;;;;;4.13;2.50;;;25.10;73.70;;;;;;4974632;28;20039;-68
2022/08/10 09:10:22;;;;;;;5.68;3.08;;;25.10;73.10;;;;;;4974538;28;20380;-67
2022/08/10 09:13:00;;;;;;;4.85;2.83;;;25.10;74.00;;;;;;4974625;28;20365;-67
2022/08/10 09:15:36;;;;;;;3.22;2.08;;;25.20;73.00;;;;;;4974525;28;20023;-68
2022/08/10 09:18:20;;;;;;;4.90;2.78;;;25.10;72.80;;;;;;4974546;28;20027;-67
2022/08/10 09:20:52;;;;;;;9.00;3.35;;;25.10;73.10;;;;;;4974011;28;20086;-68
2022/08/10 09:23:36;;;;;;;;;;;25.20;72.50;;;;;;4974892;28;20027;-67
2022/08/10 09:26:17;;;;;;;9.57;3.83;;;25.30;72.20;;;;;;4974357;28;19906;-67
2022/08/10 09:28:43;;;;;;;7.57;2.77;;;25.30;71.80;;;;;;4974554;28;20019;-67
2022/08/10 09:31:10;;;;;;;7.65;2.90;;;25.40;71.60;;;;;;4974215;28;20277;-67
2022/08/10 09:34:01;;;;;;;7.03;2.97;;;25.30;71.30;;;;;;4974140;28;20433;-67
2022/08/10 09:36:41;;;;;;;4.95;2.95;;;25.30;71.00;;;;;;4974296;28;20045;-68
2022/08/10 09:39:26;;;;;;;6.10;2.58;;;25.40;71.10;;;;;;4974559;28;20110;-68
2022/08/10 09:42:22;;;;;;;8.60;2.97;;;25.40;71.20;;;;;;4974457;28;20027;-67
2022/08/10 09:45:15;;;;;;;6.18;2.72;;;25.50;70.40;;;;;;4974227;28;20106;-67
2022/08/10 09:48:02;;;;;;;5.30;2.28;;;25.50;70.20;;;;;;4974579;28;20093;-67
2022/08/10 09:50:52;;;;;;;6.55;2.53;;;25.40;70.50;;;;;;4974325;28;20023;-67
2022/08/10 09:53:44;;;;;;;3.75;2.28;;;25.50;70.50;;;;;;4974276;28;20031;-67
2022/08/10 09:56:39;;;;;;;3.10;2.38;;;25.50;70.30;;;;;;4968579;28;20031;-67
2022/08/10 09:59:39;;;;;;;3.33;2.20;;;25.50;70.10;;;;;;4974018;28;20031;-67
2022/08/10 10:02:13;;;;;;;3.40;2.10;;;25.50;69.90;;;;;;4974911;28;20399;-67
2022/08/10 10:05:16;;;;;;;4.28;2.10;;;25.50;70.10;;;;;;4977716;28;20027;-67
2022/08/10 10:07:47;;;;;;;;;;;25.50;70.10;;;;;;4978440;28;20042;-67
2022/08/10 10:10:18;;;;;;;6.53;2.28;;;25.60;69.60;;;;;;4977708;28;19906;-67
2022/08/10 10:13:04;;;;;;;4.80;2.10;;;25.50;69.40;;;;;;4978020;28;20113;-67
2022/08/10 10:16:01;;;;;;;2.28;1.55;;;25.50;69.70;;;;;;4977474;28;20023;-67
2022/08/10 10:18:48;;;;;;;5.45;2.10;;;25.50;70.10;;;;;;4977522;28;20029;-69
2022/08/10 10:21:23;;;;;;;4.07;1.30;;;25.50;69.60;;;;;;4977314;28;20022;-66
2022/08/10 10:24:05;;;;;;;3.42;1.30;;;25.50;71.30;;;;;;4977494;28;20100;-66
2022/08/10 10:26:55;;;;;;;1.65;1.20;;;25.60;70.60;;;;;;4977394;28;20023;-66
2022/08/10 10:29:44;;;;;;;2.67;1.50;;;25.80;70.20;;;;;;4977589;28;20034;-66
2022/08/10 10:32:28;;;;;;;2.33;1.17;;;25.80;70.00;;;;;;4976569;28;20125;-66
2022/08/10 10:34:57;;;;;;;2.33;1.38;;;25.80;69.70;;;;;;4977205;28;20023;-66
2022/08/10 10:37:24;;;;;;;2.90;1.58;;;25.80;69.60;;;;;;4976881;28;20123;-69
2022/08/10 10:39:55;;;;;;;2.78;1.48;;;25.80;69.10;;;;;;4977339;28;20537;-66
2022/08/10 10:42:48;;;;;;;2.42;1.65;;;25.90;69.20;;;;;;4977118;28;20047;-70
2022/08/10 10:45:41;;;;;;;2.42;1.23;;;25.90;69.20;;;;;;4977293;28;20070;-67
2022/08/10 10:48:21;;;;;;;3.95;1.42;;;25.90;69.00;;;;;;4977141;28;20097;-69
2022/08/10 10:51:15;;;;;;;1.60;1.02;;;25.90;68.90;;;;;;4977059;28;20065;-65
2022/08/10 10:54:05;;;;;;;1.88;1.48;;;25.80;68.80;;;;;;4977041;28;20392;-70
2022/08/10 10:57:04;;;;;;;2.05;1.30;;;25.90;68.80;;;;;;4976698;28;20454;-66
2022/08/10 10:59:40;;;;;;;1.98;1.25;;;25.80;68.80;;;;;;4976806;28;20503;-70
2022/08/10 11:02:17;;;;;;;2.08;1.30;;;25.90;68.60;;;;;;4976390;28;20038;-66
2022/08/10 11:05:13;;;;;;;3.47;1.60;;;25.80;68.70;;;;;;4976557;28;20027;-67
2022/08/10 11:07:46;;;;;;;2.92;1.15;;;25.90;68.70;;;;;;4976445;28;20027;-65
2022/08/10 11:10:19;;;;;;;2.60;1.40;;;25.80;68.40;;;;;;4976705;28;20080;-68
2022/08/10 11:13:05;;;;;;;1.77;1.20;;;25.80;68.50;;;;;;4976349;28;20042;-66
2022/08/10 11:15:37;;;;;;;4.10;1.08;;;25.80;68.50;;;;;;4976076;28;20031;-67
2022/08/10 11:18:17;;;;;;;2.92;1.45;;;25.80;68.30;;;;;;4976575;28;20387;-69
2022/08/10 11:21:25;;;;;;;3.05;1.40;;;25.90;68.20;;;;;;4976590;28;20030;-66
2022/08/10 11:24:23;;;;;;;2.30;1.38;;;25.80;68.20;;;;;;4948747;28;20516;-69
2022/08/10 11:27:07;;;;;;;2.08;1.50;;;25.80;68.10;;;;;;4976390;28;20030;-71
2022/08/10 11:29:43;;;;;;;1.92;1.17;;;25.90;68.20;;;;;;4975862;28;20031;-67
2022/08/10 11:32:37;;;;;;;1.80;1.40;;;25.90;68.10;;;;;;4976342;28;20533;-69
2022/08/10 11:35:38;;;;;;;2.42;1.25;;;25.90;68.00;;;;;;4976152;28;20035;-67
2022/08/10 11:38:29;;;;;;;1.50;1.33;;;25.90;68.20;;;;;;4976130;28;20472;-66
2022/08/10 11:40:55;;;;;;;1.73;1.20;;;25.90;68.10;;;;;;4976174;28;20110;-67
2022/08/10 11:43:25;;;;;;;3.55;1.30;;;25.90;67.70;;;;;;4976013;28;20445;-66
2022/08/10 11:46:10;;;;;;;2.42;1.10;;;25.90;67.80;;;;;;4975954;28;20049;-67
2022/08/10 11:48:45;;;;;;;1.83;1.10;;;25.90;68.00;;;;;;4975806;28;20102;-68
2022/08/10 11:51:37;;;;;;;2.15;1.13;;;25.90;67.80;;;;;;4976031;28;20113;-67
2022/08/10 11:54:09;;;;;;;2.58;0.90;;;25.90;68.10;;;;;;4948504;28;20538;-66
2022/08/10 11:56:46;;;;;;;1.00;0.85;;;25.90;67.80;;;;;;4974554;28;20030;-66
2022/08/10 12:02:00;;;;;;;2.28;1.38;;;26.00;67.70;;;;;;4975941;28;20070;-65
2022/08/10 12:04:28;;;;;;;2.08;1.05;;;26.00;67.50;;;;;;4974728;28;20043;-67
2022/08/10 12:06:54;;;;;;;1.60;1.00;;;26.00;67.70;;;;;;4976098;28;20037;-65
2022/08/10 12:09:21;;;;;;;3.70;1.55;;;26.00;67.60;;;;;;4974378;28;20023;-66
2022/08/10 12:11:49;;;;;;;2.88;1.50;;;26.00;67.50;;;;;;4975761;28;20023;-66
2022/08/10 12:14:24;;;;;;;2.53;1.60;;;26.00;67.40;;;;;;4975282;28;20027;-66
2022/08/10 12:17:06;;;;;;;1.77;1.13;;;26.00;67.50;;;;;;4975442;28;20588;-66
2022/08/10 12:19:54;;;;;;;2.63;1.20;;;26.00;67.40;;;;;;4975236;28;20047;-65
2022/08/10 12:22:26;;;;;;;1.83;1.30;;;26.00;67.40;;;;;;4975309;28;20130;-65
2022/08/10 12:24:59;;;;;;;2.17;1.40;;;26.00;67.10;;;;;;4974576;28;20077;-65
2022/08/10 12:27:40;;;;;;;1.80;1.30;;;26.00;67.20;;;;;;4974954;28;20084;-66
2022/08/10 12:30:08;;;;;;;2.40;1.25;;;26.00;67.30;;;;;;4975203;28;20019;-66
2022/08/10 12:32:44;;;;;;;1.85;1.30;;;26.00;67.10;;;;;;4975193;28;20026;-65
2022/08/10 12:35:26;;;;;;;2.38;1.27;;;26.00;67.10;;;;;;4974879;28;20029;-66
2022/08/10 12:38:22;;;;;;;1.20;1.05;;;26.00;67.10;;;;;;4973832;28;20094;-66
2022/08/10 12:40:53;;;;;;;1.10;0.93;;;26.00;67.10;;;;;;4974895;28;20031;-65
2022/08/10 12:43:50;;;;;;;1.70;1.30;;;26.10;67.10;;;;;;4974576;28;20034;-66
2022/08/10 12:46:25;;;;;;;2.63;1.10;;;26.10;67.30;;;;;;4975061;28;20471;-68
2022/08/10 12:49:01;;;;;;;1.65;1.15;;;26.10;66.90;;;;;;4973630;28;20086;-65
2022/08/10 12:51:29;;;;;;;1.05;0.82;;;26.10;66.80;;;;;;4973558;28;20130;-66
2022/08/10 12:54:12;;;;;;;1.83;1.15;;;26.10;66.90;;;;;;4974859;28;20054;-67
2022/08/10 12:56:47;;;;;;;1.70;1.38;;;26.10;67.10;;;;;;4974427;28;20102;-65
2022/08/10 12:59:14;;;;;;;2.42;1.50;;;26.10;66.90;;;;;;4974859;28;20061;-69
2022/08/10 13:01:42;;;;;;;2.00;1.33;;;26.10;66.80;;;;;;4974716;28;20388;-69
2022/08/10 13:04:09;;;;;;;1.60;1.17;;;26.10;66.70;;;;;;4974683;28;20030;-65
2022/08/10 13:06:41;;;;;;;3.05;1.38;;;26.10;66.60;;;;;;4974658;28;20093;-66
2022/08/10 13:09:07;;;;;;;1.33;1.20;;;26.10;66.60;;;;;;4974777;28;20070;-65
2022/08/10 13:11:39;;;;;;;1.17;0.90;;;26.20;66.70;;;;;;4974407;28;20019;-65
2022/08/10 13:14:13;;;;;;;1.40;1.15;;;26.20;66.70;;;;;;4974448;28;20369;-66
2022/08/10 13:16:41;;;;;;;1.40;1.02;;;26.20;66.50;;;;;;4974690;28;20090;-67
2022/08/10 13:19:09;;;;;;;1.58;1.30;;;26.20;66.60;;;;;;4975257;28;20029;-70
2022/08/10 13:21:37;;;;;;;3.42;1.08;;;26.10;66.50;;;;;;4974119;28;20126;-69
2022/08/10 13:24:10;;;;;;;1.60;1.02;;;26.20;66.50;;;;;;4974608;28;20010;-71
2022/08/10 13:27:01;;;;;;;1.83;0.90;;;26.20;66.50;;;;;;4974279;28;20052;-69